Vero Beach Municipal Airport
KVRB : now visible

Airfield :











YOU CAN JOIN US ON...

 
LOGIN :

Register | Disclaimer

   EN    FR    IT 

 









Legend :    VFR   Marginal VFR   IFR   Intensive IFR   Very Intensive IFR
Visi :
Ceiling :
>= 8 km
>= 3000ft
5 to 8 km
1000 to 3000 ft
1500m to 5 km
500 to 1000 ft
800 to 1500m
200 to 500 ft
< 800m
< 200 ft
Symbols :   Thunderstorms  Fog  Heavy snow  Heavy precipitations  Wind > 20 kt






- Airport Elevation : 24 ft
- IATA code : VRB


KVRB - Vero Beach Municipal

CURRENT METAR :
  • 100653Z AUTO 26010KT 7SM OVC006 23/22 A2979 RMK AO2 SLP087 T02330217

EXPIRED METARs :
  • 100637Z AUTO 26012KT 6SM BR BKN007 23/22 A2979 RMK AO2 T02330217
  • 100628Z AUTO 25011KT 6SM BR SCT006 23/21 A2979 RMK AO2 T02280211
  • 100553Z AUTO 25009KT 7SM CLR 23/21 A2979 RMK AO2 SLP087 T02280211 10294 20228 56010
  • 100453Z AUTO 25012KT 9SM CLR 24/21 A2980 RMK AO2 SLP090 T02390211 403390217

TAF KVRB
Valid from the 10 at 06:00 until the 11 at 06:00 UTC


100520Z 1006/1106 26010KT P6SM FEW030 SCT250
FM101000 25008KT P6SM SCT008 BKN012
FM101500 30012KT P6SM FEW015 BKN025
FM101700 35013G23KT P6SM VCSH SCT030 BKN050
TEMPO 1018/1022 TS BKN030CB BKN060
FM102300 35010KT P6SM SCT035 BKN100



MET'MAP, your aeronautical weather chart ! - Copyright ORBIFLY December 2007 - Disclaimer

ORBIFLY MET'MAP TEAM :

Programming & Development : Alexandra Zaïnal
Concept & original design : Baudouin d'Aumeries
Assistance for programming : Marc-Olivier Méhu
Technical & hardware support : Manuel Goepfert

Contact : metmap@orbifly.com




SOURCES & CREDITS :

   NOAA       Earth
Advisory